Time;durP1;ratioP1;P1;durP2;ratioP2;P2;SDS_P1;SDS_P2;PMS_P1;PMS_P2;Temp;Humidity;BMP_temperature;BMP_pressure;BME280_temperature;BME280_humidity;BME280_pressure;Samples;Min_cycle;Max_cycle;Signal;HPM_P1;HPM_P2
2021/07/10 00:02:08;;;;;;;1.95;0.32;;;20.70;94.10;;;;;;3554248;40;20775;-66
2021/07/10 00:04:33;;;;;;;2.55;0.20;;;20.70;93.80;;;;;;3558389;40;20425;-65
2021/07/10 00:07:00;;;;;;;1.50;0.40;;;20.70;93.80;;;;;;3558907;40;20650;-66
2021/07/10 00:09:27;;;;;;;2.08;0.90;;;20.70;93.80;;;;;;3560233;40;20388;-65
2021/07/10 00:11:53;;;;;;;3.05;1.20;;;20.60;93.60;;;;;;3559934;40;20798;-66
2021/07/10 00:14:20;;;;;;;15.30;8.32;;;20.60;93.90;;;;;;3561826;40;20399;-66
2021/07/10 00:16:47;;;;;;;7.47;3.20;;;20.50;94.20;;;;;;3557051;40;20447;-66
2021/07/10 00:19:13;;;;;;;2.90;1.15;;;20.60;93.60;;;;;;3557189;40;20753;-66
2021/07/10 00:21:39;;;;;;;1.48;0.35;;;20.50;94.00;;;;;;3556423;40;20411;-66
2021/07/10 00:24:05;;;;;;;1.25;0.20;;;20.50;94.10;;;;;;3561800;40;20445;-66
2021/07/10 00:26:32;;;;;;;0.73;0.10;;;20.30;94.00;;;;;;3559656;40;20778;-65
2021/07/10 00:28:58;;;;;;;0.10;0.10;;;20.30;94.40;;;;;;3555931;40;20399;-65
2021/07/10 00:31:24;;;;;;;4.40;0.13;;;;;;;;;;3558931;40;20404;-66
2021/07/10 00:33:51;;;;;;;0.65;0.10;;;20.20;94.60;;;;;;3561793;40;20388;-66
2021/07/10 00:36:17;;;;;;;2.08;0.20;;;20.10;94.60;;;;;;3564840;40;20402;-66
2021/07/10 00:38:43;;;;;;;0.80;0.10;;;20.10;94.80;;;;;;3558869;40;20443;-67
2021/07/10 00:41:09;;;;;;;0.65;0.10;;;20.10;94.80;;;;;;3560331;40;20411;-67
2021/07/10 00:43:36;;;;;;;0.80;0.10;;;20.00;94.80;;;;;;3564720;40;20411;-69
2021/07/10 00:46:02;;;;;;;1.00;0.15;;;20.00;95.10;;;;;;3559969;40;20389;-67
2021/07/10 00:48:29;;;;;;;1.98;0.20;;;20.00;95.00;;;;;;3563581;40;20386;-69
2021/07/10 00:50:56;;;;;;;0.40;0.10;;;20.00;95.10;;;;;;3559331;40;20394;-67
2021/07/10 00:53:22;;;;;;;0.75;0.10;;;20.00;94.80;;;;;;3555910;40;20407;-67
2021/07/10 00:55:48;;;;;;;1.25;0.10;;;20.00;94.30;;;;;;3565844;40;20638;-66
2021/07/10 00:58:15;;;;;;;0.68;0.10;;;20.10;94.10;;;;;;3551627;40;20417;-66
2021/07/10 01:00:41;;;;;;;0.40;0.10;;;20.20;93.80;;;;;;3560211;40;20456;-64
2021/07/10 01:03:07;;;;;;;0.33;0.10;;;20.30;93.70;;;;;;3603722;22;20666;-63
2021/07/10 01:05:35;;;;;;;0.67;0.10;;;20.40;93.60;;;;;;3577298;40;20380;-63
2021/07/10 01:08:02;;;;;;;0.20;0.10;;;20.30;93.80;;;;;;3576843;40;20478;-64
2021/07/10 01:10:28;;;;;;;0.35;0.10;;;20.30;93.70;;;;;;3576172;40;20412;-63
2021/07/10 01:12:56;;;;;;;1.25;0.20;;;20.30;93.60;;;;;;3576981;40;20384;-63
2021/07/10 01:15:24;;;;;;;0.40;0.08;;;20.30;93.50;;;;;;3567821;40;20376;-63
2021/07/10 01:17:51;;;;;;;0.20;0.20;;;20.30;93.70;;;;;;3576847;40;20400;-62
2021/07/10 01:20:19;;;;;;;1.10;0.20;;;20.30;93.50;;;;;;3577153;40;20767;-63
2021/07/10 01:22:48;;;;;;;0.50;0.10;;;20.30;93.90;;;;;;3567890;40;20388;-62
2021/07/10 01:25:16;;;;;;;0.15;0.13;;;20.20;93.50;;;;;;3576961;40;20381;-62
2021/07/10 01:27:45;;;;;;;0.20;0.10;;;20.20;93.50;;;;;;3576721;40;20411;-62
2021/07/10 01:30:14;;;;;;;1.00;0.10;;;20.30;93.40;;;;;;3576813;40;20380;-62
2021/07/10 01:32:41;;;;;;;1.85;0.20;;;20.30;93.50;;;;;;3567481;40;20423;-62
2021/07/10 01:35:09;;;;;;;1.13;0.17;;;20.30;93.50;;;;;;3576951;40;20387;-62
2021/07/10 01:37:36;;;;;;;0.90;0.10;;;20.30;93.30;;;;;;3576830;40;20489;-63
2021/07/10 01:40:05;;;;;;;1.60;0.10;;;20.30;93.60;;;;;;3577049;40;20392;-62
2021/07/10 01:42:32;;;;;;;0.25;0.10;;;20.30;93.30;;;;;;3558208;40;20407;-62
2021/07/10 01:44:59;;;;;;;0.50;0.10;;;20.20;93.40;;;;;;3567329;40;20463;-62
2021/07/10 01:47:24;;;;;;;1.40;0.10;;;20.30;93.40;;;;;;3576715;40;20380;-62
2021/07/10 01:49:51;;;;;;;1.30;0.30;;;20.30;93.40;;;;;;3576756;40;20487;-62
2021/07/10 01:52:17;;;;;;;0.70;0.17;;;20.20;93.30;;;;;;3576792;40;20462;-62
2021/07/10 01:54:43;;;;;;;0.20;0.10;;;20.20;93.50;;;;;;3576322;40;20395;-62
2021/07/10 01:57:10;;;;;;;0.30;0.20;;;20.20;93.40;;;;;;3564426;40;20443;-63
2021/07/10 01:59:36;;;;;;;0.40;0.10;;;20.20;93.50;;;;;;3575307;40;20388;-63
2021/07/10 02:02:03;;;;;;;0.63;0.10;;;20.10;93.50;;;;;;3576504;40;20398;-62
2021/07/10 02:04:30;;;;;;;0.30;0.10;;;20.10;93.70;;;;;;3576715;40;20376;-62
2021/07/10 02:06:56;;;;;;;1.00;0.10;;;20.00;93.70;;;;;;3567640;40;20773;-62
2021/07/10 02:09:22;;;;;;;0.40;0.10;;;20.00;93.80;;;;;;3567244;40;20447;-62
2021/07/10 02:11:50;;;;;;;1.60;0.10;;;20.00;93.80;;;;;;3576470;40;20493;-62
2021/07/10 02:14:19;;;;;;;1.20;0.20;;;20.00;93.40;;;;;;3569643;40;20387;-63
2021/07/10 02:16:49;;;;;;;0.43;0.10;;;20.10;93.70;;;;;;3576241;40;20477;-63
2021/07/10 02:19:15;;;;;;;0.80;0.10;;;20.00;93.90;;;;;;3571980;40;20630;-62
2021/07/10 02:21:41;;;;;;;1.10;0.20;;;20.00;93.80;;;;;;3567654;40;20403;-62
2021/07/10 02:24:07;;;;;;;0.80;0.20;;;19.90;93.80;;;;;;3576296;40;20380;-62
2021/07/10 02:26:35;;;;;;;0.65;0.20;;;19.90;93.60;;;;;;3576475;40;20387;-62
2021/07/10 02:29:02;;;;;;;1.38;0.17;;;19.90;93.90;;;;;;3567133;40;20757;-63
2021/07/10 02:31:29;;;;;;;1.10;0.10;;;19.80;94.20;;;;;;3570800;40;20412;-63
2021/07/10 02:33:55;;;;;;;2.55;0.20;;;19.70;94.20;;;;;;3576456;40;20388;-63
2021/07/10 02:36:21;;;;;;;0.70;0.10;;;19.70;94.30;;;;;;3579147;40;20394;-64
2021/07/10 02:38:48;;;;;;;0.73;0.10;;;19.60;94.80;;;;;;3567059;40;20654;-63
2021/07/10 02:41:14;;;;;;;0.28;0.10;;;19.50;94.80;;;;;;3567379;40;20404;-68
2021/07/10 02:43:40;;;;;;;0.47;0.10;;;19.50;94.50;;;;;;3560015;40;20694;-68
2021/07/10 02:46:06;;;;;;;1.15;0.20;;;19.50;94.60;;;;;;3567339;40;20386;-68
2021/07/10 02:48:34;;;;;;;0.20;0.10;;;19.50;94.70;;;;;;3567026;40;20408;-68
2021/07/10 02:50:59;;;;;;;0.10;0.10;;;19.50;94.60;;;;;;3568918;40;20460;-65
2021/07/10 02:53:25;;;;;;;1.60;0.10;;;19.50;94.70;;;;;;3577585;40;20380;-65
2021/07/10 02:55:51;;;;;;;0.30;0.10;;;19.50;94.70;;;;;;3577636;40;20632;-66
2021/07/10 02:58:17;;;;;;;0.10;0.10;;;19.50;94.60;;;;;;3571186;40;20411;-66
2021/07/10 03:00:43;;;;;;;0.63;0.10;;;19.40;94.70;;;;;;3568527;40;20414;-65
2021/07/10 03:03:09;;;;;;;0.27;0.13;;;19.40;94.90;;;;;;3577430;40;20746;-65
2021/07/10 03:05:37;;;;;;;0.10;0.10;;;19.30;94.90;;;;;;3578467;40;20724;-65
2021/07/10 03:08:04;;;;;;;1.25;0.13;;;19.30;94.80;;;;;;3577633;40;20395;-65
2021/07/10 03:10:31;;;;;;;0.40;0.15;;;19.40;94.80;;;;;;3577434;40;20791;-65
2021/07/10 03:12:58;;;;;;;0.80;0.10;;;19.40;94.70;;;;;;3560193;40;20403;-65
2021/07/10 03:15:27;;;;;;;0.70;0.20;;;19.40;94.50;;;;;;3577271;40;20404;-65
2021/07/10 03:17:53;;;;;;;0.70;0.13;;;19.40;94.60;;;;;;3571722;40;20489;-65
2021/07/10 03:20:22;;;;;;;0.60;0.20;;;19.40;94.70;;;;;;3578454;40;20383;-65
2021/07/10 03:22:50;;;;;;;0.90;0.20;;;19.40;94.60;;;;;;3576814;40;20376;-65
2021/07/10 03:25:17;;;;;;;0.70;0.10;;;19.30;94.80;;;;;;3577820;40;20395;-66
2021/07/10 03:27:44;;;;;;;0.75;0.10;;;19.20;95.10;;;;;;3577556;40;20440;-65
2021/07/10 03:30:13;;;;;;;0.80;0.10;;;19.10;95.20;;;;;;3577638;40;20419;-65
2021/07/10 03:32:39;;;;;;;0.20;0.10;;;19.00;95.40;;;;;;3577475;40;20383;-66
2021/07/10 03:35:06;;;;;;;0.25;0.10;;;19.00;95.40;;;;;;3568242;40;20396;-66
2021/07/10 03:37:32;;;;;;;0.40;0.20;;;19.10;95.10;;;;;;3577326;40;20455;-65
2021/07/10 03:40:00;;;;;;;1.50;0.10;;;19.10;95.30;;;;;;3577727;40;20382;-65
2021/07/10 03:42:26;;;;;;;0.63;0.10;;;19.20;95.20;;;;;;3577459;40;20384;-65
2021/07/10 03:44:52;;;;;;;0.30;0.10;;;19.20;95.40;;;;;;3562254;40;20638;-66
2021/07/10 03:47:20;;;;;;;1.30;0.20;;;19.20;95.40;;;;;;3577701;40;20382;-65
2021/07/10 03:49:46;;;;;;;0.95;0.10;;;19.10;95.50;;;;;;3577308;40;20380;-65
2021/07/10 03:52:12;;;;;;;0.20;0.20;;;19.10;95.90;;;;;;3568518;40;20838;-65
2021/07/10 03:54:38;;;;;;;0.45;0.13;;;19.00;97.10;;;;;;3577526;40;20424;-65
2021/07/10 03:57:06;;;;;;;0.68;0.10;;;18.90;97.40;;;;;;3568144;40;20403;-65
2021/07/10 03:59:32;;;;;;;1.23;0.20;;;18.80;97.40;;;;;;3577108;40;20703;-64
2021/07/10 04:01:58;;;;;;;3.40;0.20;;;18.60;98.50;;;;;;3576976;40;20402;-65
2021/07/10 04:04:24;;;;;;;0.43;0.10;;;18.50;98.40;;;;;;3567784;40;20649;-65
2021/07/10 04:06:49;;;;;;;0.60;0.20;;;18.40;97.80;;;;;;3577188;40;20368;-65
2021/07/10 04:09:15;;;;;;;0.80;0.10;;;18.40;97.40;;;;;;3577303;40;20461;-65
2021/07/10 04:11:42;;;;;;;0.60;0.10;;;18.40;97.20;;;;;;3577385;40;20756;-65
2021/07/10 04:14:09;;;;;;;0.40;0.10;;;18.50;96.90;;;;;;3577424;40;20402;-64
2021/07/10 04:16:35;;;;;;;16.08;0.70;;;18.60;96.80;;;;;;3567894;40;20461;-64
2021/07/10 04:19:01;;;;;;;1.70;0.30;;;18.60;96.70;;;;;;3567802;40;20423;-64
2021/07/10 04:21:27;;;;;;;0.45;0.10;;;18.70;96.20;;;;;;3582043;40;20693;-64
2021/07/10 04:23:53;;;;;;;1.10;0.20;;;18.80;96.10;;;;;;3579507;40;20692;-64
2021/07/10 04:26:19;;;;;;;5.75;0.28;;;18.90;96.00;;;;;;3577307;40;20391;-65
2021/07/10 04:28:45;;;;;;;0.75;0.20;;;18.90;95.70;;;;;;3577160;40;20372;-64
2021/07/10 04:31:12;;;;;;;0.35;0.20;;;19.00;95.50;;;;;;3577022;40;20404;-64
2021/07/10 04:33:38;;;;;;;0.10;0.10;;;19.00;95.40;;;;;;3570231;40;20414;-64
2021/07/10 04:36:04;;;;;;;1.20;0.20;;;19.10;95.60;;;;;;3579206;40;20384;-64
2021/07/10 04:38:31;;;;;;;0.40;0.20;;;19.10;95.60;;;;;;3567799;40;20459;-64
2021/07/10 04:40:57;;;;;;;1.55;0.10;;;19.10;96.00;;;;;;3577161;40;20391;-64
2021/07/10 04:43:23;;;;;;;0.90;0.20;;;19.00;95.90;;;;;;3567850;40;20439;-64
2021/07/10 04:45:49;;;;;;;0.50;0.20;;;19.10;95.80;;;;;;3577116;40;20384;-64
2021/07/10 04:48:16;;;;;;;2.10;0.20;;;19.00;96.10;;;;;;3578059;40;20453;-64
2021/07/10 04:50:42;;;;;;;1.20;0.20;;;19.00;95.90;;;;;;3568118;40;20420;-64
2021/07/10 04:53:08;;;;;;;1.60;0.20;;;19.00;96.20;;;;;;3577003;40;20419;-65
2021/07/10 04:55:34;;;;;;;1.02;0.20;;;19.10;96.80;;;;;;3568285;40;20395;-64
2021/07/10 04:58:00;;;;;;;1.17;0.20;;;19.00;95.80;;;;;;3576775;40;20777;-64
2021/07/10 05:00:28;;;;;;;0.63;0.20;;;19.10;95.80;;;;;;3567766;40;20376;-64
2021/07/10 05:02:54;;;;;;;0.70;0.10;;;19.20;95.90;;;;;;3576755;40;20407;-64
2021/07/10 05:05:21;;;;;;;1.50;0.20;;;19.20;95.80;;;;;;3577109;40;20398;-64
2021/07/10 05:07:47;;;;;;;0.80;0.20;;;19.30;95.60;;;;;;3576496;40;20392;-64
2021/07/10 05:10:13;;;;;;;0.98;0.13;;;19.30;95.40;;;;;;3576119;40;20406;-64
2021/07/10 05:12:39;;;;;;;1.07;0.20;;;19.40;95.50;;;;;;3567721;40;20411;-65
2021/07/10 05:15:06;;;;;;;0.80;0.20;;;19.40;95.10;;;;;;3577109;40;20380;-64
2021/07/10 05:17:32;;;;;;;0.90;0.20;;;19.40;95.60;;;;;;3576557;40;20412;-65
2021/07/10 05:19:58;;;;;;;1.30;0.10;;;19.40;95.30;;;;;;3567727;40;20493;-65
2021/07/10 05:22:25;;;;;;;2.75;0.30;;;19.40;95.50;;;;;;3577140;40;20856;-65
2021/07/10 05:24:51;;;;;;;2.40;0.15;;;19.40;95.40;;;;;;3577078;40;20444;-64
2021/07/10 05:27:17;;;;;;;0.60;0.20;;;19.40;95.50;;;;;;3568984;40;20769;-64
2021/07/10 05:29:43;;;;;;;1.20;0.10;;;19.40;95.80;;;;;;3571951;40;20404;-64
2021/07/10 05:32:09;;;;;;;0.70;0.20;;;19.50;95.40;;;;;;3576974;40;20395;-65
2021/07/10 05:34:35;;;;;;;1.48;0.25;;;19.50;95.50;;;;;;3574788;40;20399;-65
2021/07/10 05:37:01;;;;;;;0.52;0.20;;;19.50;95.00;;;;;;3576276;40;20415;-65
2021/07/10 05:39:29;;;;;;;0.85;0.20;;;19.60;95.60;;;;;;3576294;40;20391;-65
2021/07/10 05:41:54;;;;;;;1.00;0.28;;;19.50;95.70;;;;;;3575620;40;20447;-64
2021/07/10 05:44:20;;;;;;;0.57;0.20;;;19.50;96.10;;;;;;3577523;40;20389;-64
2021/07/10 05:46:46;;;;;;;0.50;0.17;;;19.50;95.60;;;;;;3576421;40;20396;-64
2021/07/10 05:49:12;;;;;;;0.93;0.20;;;19.60;95.90;;;;;;3572551;40;20407;-65
2021/07/10 05:51:39;;;;;;;1.30;0.20;;;19.70;95.30;;;;;;3566396;40;20424;-64
2021/07/10 05:54:05;;;;;;;0.65;0.25;;;19.70;95.80;;;;;;3559246;40;20418;-65
2021/07/10 05:56:32;;;;;;;1.13;0.20;;;19.70;95.90;;;;;;3566609;40;20411;-65
2021/07/10 05:58:58;;;;;;;1.45;0.20;;;19.70;95.40;;;;;;3566869;40;20415;-65
2021/07/10 06:01:24;;;;;;;0.50;0.10;;;19.80;95.80;;;;;;3577098;40;20781;-65
2021/07/10 06:03:50;;;;;;;1.45;0.20;;;19.80;95.90;;;;;;3558934;40;20439;-65
2021/07/10 06:06:16;;;;;;;0.43;0.20;;;19.80;95.80;;;;;;3577181;40;20408;-65
2021/07/10 06:08:42;;;;;;;0.70;0.20;;;19.90;95.90;;;;;;3576728;40;20776;-65
2021/07/10 06:11:09;;;;;;;1.00;0.20;;;20.00;95.80;;;;;;3567187;40;20414;-64
2021/07/10 06:13:36;;;;;;;0.52;0.20;;;20.10;95.40;;;;;;3576826;40;20444;-65
2021/07/10 06:16:02;;;;;;;0.20;0.20;;;20.20;95.60;;;;;;3567070;40;20656;-65
2021/07/10 06:18:28;;;;;;;1.50;0.30;;;20.20;95.80;;;;;;3568083;40;20435;-65
2021/07/10 06:20:54;;;;;;;3.10;0.32;;;20.30;95.20;;;;;;3568591;40;20384;-65
2021/07/10 06:23:21;;;;;;;2.03;0.30;;;20.40;94.90;;;;;;3575178;40;20396;-65
2021/07/10 06:25:47;;;;;;;0.30;0.20;;;20.40;95.00;;;;;;3576359;40;20392;-70
2021/07/10 06:28:13;;;;;;;0.70;0.30;;;20.50;94.40;;;;;;3574073;40;20366;-65
2021/07/10 06:30:40;;;;;;;1.05;0.17;;;20.50;94.10;;;;;;3575832;40;20408;-64
2021/07/10 06:33:06;;;;;;;0.50;0.30;;;20.60;94.00;;;;;;3580327;40;20682;-64
2021/07/10 06:35:33;;;;;;;1.70;0.30;;;20.60;94.90;;;;;;3576589;40;20391;-64
2021/07/10 06:37:58;;;;;;;1.33;0.20;;;20.80;94.10;;;;;;3566562;40;20400;-64
2021/07/10 06:40:25;;;;;;;0.90;0.30;;;20.90;93.50;;;;;;3574797;40;20425;-66
2021/07/10 06:42:51;;;;;;;0.90;0.25;;;21.00;93.70;;;;;;3573080;40;20383;-64
2021/07/10 06:45:19;;;;;;;1.83;0.22;;;21.00;94.00;;;;;;3557651;40;20408;-64
2021/07/10 06:47:47;;;;;;;1.20;0.20;;;21.10;93.70;;;;;;3557161;40;20395;-64
2021/07/10 06:50:14;;;;;;;1.38;0.30;;;;;;;;;;3574090;40;20723;-64
2021/07/10 06:52:40;;;;;;;1.20;0.30;;;21.30;93.50;;;;;;3574978;40;20384;-64
2021/07/10 06:55:08;;;;;;;3.58;0.30;;;21.40;93.20;;;;;;3576608;40;20387;-64
2021/07/10 06:57:34;;;;;;;0.50;0.30;;;21.50;92.90;;;;;;3565328;40;20656;-64
2021/07/10 07:00:00;;;;;;;0.28;0.20;;;21.50;93.90;;;;;;3575393;40;20392;-64
2021/07/10 07:02:26;;;;;;;1.75;0.30;;;21.60;93.20;;;;;;3565247;40;20461;-64
2021/07/10 07:04:54;;;;;;;1.40;0.40;;;21.80;93.50;;;;;;3575577;40;20481;-64
2021/07/10 07:07:20;;;;;;;0.60;0.22;;;21.90;93.70;;;;;;3573658;40;20404;-65
2021/07/10 07:09:46;;;;;;;0.80;0.20;;;22.00;92.60;;;;;;3564278;40;20411;-66
2021/07/10 07:12:12;;;;;;;1.67;0.30;;;22.10;92.90;;;;;;3574250;40;20481;-65
2021/07/10 07:14:38;;;;;;;1.00;0.35;;;22.10;92.80;;;;;;3564736;40;20403;-65
2021/07/10 07:17:04;;;;;;;1.30;0.40;;;22.20;92.60;;;;;;3565107;40;20522;-65
2021/07/10 07:19:31;;;;;;;1.35;0.20;;;22.30;92.70;;;;;;3573820;40;20734;-66
2021/07/10 07:21:58;;;;;;;0.30;0.20;;;22.50;92.60;;;;;;3565153;40;20383;-64
2021/07/10 07:24:25;;;;;;;1.15;0.10;;;22.60;91.70;;;;;;3561954;40;20545;-67
2021/07/10 07:26:51;;;;;;;0.73;0.20;;;22.70;92.90;;;;;;3574479;40;20430;-66
2021/07/10 07:29:17;;;;;;;0.65;0.20;;;22.80;92.60;;;;;;3574163;40;20456;-65
2021/07/10 07:31:43;;;;;;;0.55;0.20;;;23.00;91.70;;;;;;3574015;40;20403;-65
2021/07/10 07:34:09;;;;;;;0.63;0.20;;;23.10;91.10;;;;;;3573812;40;20423;-66
2021/07/10 07:36:35;;;;;;;0.98;0.20;;;23.30;92.50;;;;;;3564579;40;20392;-65
2021/07/10 07:39:06;;;;;;;2.00;0.30;;;23.40;91.20;;;;;;3573787;40;20471;-64
2021/07/10 07:41:32;;;;;;;1.00;0.20;;;23.60;91.20;;;;;;3575274;40;20461;-65
2021/07/10 07:43:58;;;;;;;0.22;0.20;;;23.70;90.90;;;;;;3575543;40;20443;-66
2021/07/10 07:46:24;;;;;;;0.40;0.17;;;23.80;89.50;;;;;;3574011;40;20506;-65
2021/07/10 07:48:49;;;;;;;1.30;0.28;;;23.90;90.80;;;;;;3575059;40;20497;-64
2021/07/10 07:51:16;;;;;;;0.70;0.30;;;24.00;90.90;;;;;;3574116;40;20443;-65
2021/07/10 07:53:43;;;;;;;0.88;0.20;;;24.20;91.20;;;;;;3574199;40;20880;-65
2021/07/10 07:56:10;;;;;;;0.40;0.20;;;24.30;90.00;;;;;;3569581;40;20412;-65
2021/07/10 07:58:38;;;;;;;0.70;0.30;;;24.50;90.50;;;;;;3564365;40;20400;-65
2021/07/10 08:01:04;;;;;;;1.40;0.20;;;24.60;89.50;;;;;;3575026;40;20772;-65
2021/07/10 08:03:30;;;;;;;0.65;0.20;;;24.70;90.40;;;;;;3563990;40;20467;-65
2021/07/10 08:05:56;;;;;;;0.98;0.40;;;24.90;88.10;;;;;;3575613;40;20388;-65
2021/07/10 08:08:22;;;;;;;0.90;0.20;;;25.10;89.00;;;;;;3574930;40;20404;-65
2021/07/10 08:10:48;;;;;;;1.05;0.20;;;25.20;87.00;;;;;;3557485;40;20493;-65
2021/07/10 08:13:16;;;;;;;1.20;0.20;;;25.30;89.40;;;;;;3574508;40;20405;-65
2021/07/10 08:15:42;;;;;;;0.75;0.10;;;25.50;86.90;;;;;;3574359;40;20412;-66
2021/07/10 08:18:08;;;;;;;0.70;0.20;;;25.60;85.30;;;;;;3556256;40;20419;-66
2021/07/10 08:20:34;;;;;;;0.32;0.22;;;25.70;84.50;;;;;;3573343;40;20423;-67
2021/07/10 08:23:00;;;;;;;0.40;0.20;;;25.70;84.90;;;;;;3574788;40;20412;-66
2021/07/10 08:25:26;;;;;;;1.20;0.20;;;25.80;85.80;;;;;;3575603;40;20482;-66
2021/07/10 08:27:52;;;;;;;1.23;0.20;;;25.80;85.80;;;;;;3565027;40;20873;-66
2021/07/10 08:30:20;;;;;;;0.70;0.20;;;26.00;83.80;;;;;;3574856;40;20380;-66
2021/07/10 08:32:47;;;;;;;0.40;0.10;;;25.90;83.80;;;;;;3574277;40;20455;-66
2021/07/10 08:35:15;;;;;;;0.28;0.20;;;25.80;82.60;;;;;;3574232;40;20399;-65
2021/07/10 08:37:43;;;;;;;0.85;0.20;;;25.80;83.10;;;;;;3572933;40;20407;-65
2021/07/10 08:40:11;;;;;;;0.70;0.20;;;25.90;84.00;;;;;;3564017;40;20403;-64
2021/07/10 08:42:37;;;;;;;0.40;0.10;;;26.00;84.30;;;;;;3572645;40;20408;-67
2021/07/10 08:45:06;;;;;;;0.25;0.20;;;26.10;83.90;;;;;;3574286;40;20439;-67
2021/07/10 08:47:35;;;;;;;0.57;0.30;;;26.20;84.70;;;;;;3574674;40;20761;-66
2021/07/10 08:50:02;;;;;;;0.80;0.20;;;26.30;84.80;;;;;;3574719;40;20555;-66
2021/07/10 08:52:28;;;;;;;1.10;0.20;;;26.50;83.80;;;;;;3574773;40;20541;-67
2021/07/10 08:54:54;;;;;;;0.20;0.10;;;26.60;85.60;;;;;;3566033;40;20419;-67
2021/07/10 08:57:20;;;;;;;0.90;0.20;;;26.70;85.40;;;;;;3569555;40;20687;-66
2021/07/10 08:59:46;;;;;;;0.70;0.30;;;26.60;84.00;;;;;;3575917;40;20739;-67
2021/07/10 09:02:12;;;;;;;0.88;0.15;;;26.50;85.20;;;;;;3574933;40;20427;-67
2021/07/10 09:04:41;;;;;;;0.45;0.20;;;26.70;85.60;;;;;;3571044;40;20499;-67
2021/07/10 09:07:07;;;;;;;0.20;0.10;;;26.80;84.60;;;;;;3575695;40;20404;-65
2021/07/10 09:09:43;;;;;;;1.75;0.30;;;26.70;86.50;;;;;;3565140;40;20402;-67
2021/07/10 09:12:10;;;;;;;0.70;0.28;;;26.60;84.90;;;;;;3566135;40;20403;-66
2021/07/10 09:14:36;;;;;;;0.40;0.10;;;26.60;86.80;;;;;;3575505;40;20440;-66
2021/07/10 09:17:16;;;;;;;0.40;0.10;;;26.80;85.30;;;;;;3575180;40;20780;-66
2021/07/10 09:19:44;;;;;;;0.30;0.20;;;27.00;83.30;;;;;;3575747;40;20495;-66
2021/07/10 09:22:10;;;;;;;0.40;0.20;;;27.10;83.80;;;;;;3571378;40;20404;-66
2021/07/10 09:24:39;;;;;;;0.60;0.20;;;27.30;85.50;;;;;;3565089;40;20396;-68
2021/07/10 09:27:07;;;;;;;0.68;0.10;;;27.60;86.70;;;;;;3560834;40;20424;-67
2021/07/10 09:29:39;;;;;;;2.40;0.40;;;27.70;82.20;;;;;;3564909;40;20392;-67
2021/07/10 09:32:07;;;;;;;0.90;0.15;;;27.90;80.80;;;;;;3565501;40;20379;-67
2021/07/10 09:34:39;;;;;;;1.20;0.20;;;27.90;81.50;;;;;;3574614;40;20391;-68
2021/07/10 09:37:09;;;;;;;0.43;0.20;;;27.90;80.80;;;;;;3574526;40;20465;-68
2021/07/10 09:39:42;;;;;;;1.08;0.22;;;27.90;81.60;;;;;;3575139;40;20462;-67
2021/07/10 09:42:08;;;;;;;2.47;0.20;;;27.90;86.20;;;;;;3575087;40;20427;-67
2021/07/10 09:44:45;;;;;;;0.60;0.20;;;28.00;85.60;;;;;;3574022;40;20407;-67
2021/07/10 09:47:13;;;;;;;0.80;0.13;;;28.10;83.90;;;;;;3563946;40;20404;-67
2021/07/10 09:49:41;;;;;;;0.20;0.20;;;28.10;84.70;;;;;;3573835;40;20474;-67
2021/07/10 09:52:12;;;;;;;2.00;0.20;;;28.30;83.60;;;;;;3562572;40;20534;-68
2021/07/10 09:54:41;;;;;;;2.03;0.30;;;28.30;92.80;;;;;;3574851;40;20372;-67
2021/07/10 09:57:10;;;;;;;0.88;0.13;;;28.30;93.00;;;;;;3574255;40;20392;-66
2021/07/10 09:59:41;;;;;;;1.17;0.10;;;28.50;83.40;;;;;;3575226;40;20404;-66
2021/07/10 10:02:12;;;;;;;0.65;0.20;;;28.50;83.40;;;;;;3573952;40;20508;-65
2021/07/10 10:04:38;;;;;;;0.80;0.20;;;28.50;84.20;;;;;;3574841;40;20369;-66
2021/07/10 10:07:11;;;;;;;0.43;0.25;;;28.50;84.90;;;;;;3566154;40;20648;-66
2021/07/10 10:09:37;;;;;;;0.30;0.20;;;28.30;83.50;;;;;;3575874;40;20372;-66
2021/07/10 10:12:07;;;;;;;0.85;0.15;;;28.40;83.60;;;;;;3574932;40;20637;-66
2021/07/10 10:14:39;;;;;;;0.32;0.10;;;28.50;82.70;;;;;;3574469;40;20376;-66
2021/07/10 10:17:05;;;;;;;0.50;0.20;;;28.50;81.40;;;;;;3569548;40;20458;-67
2021/07/10 10:19:33;;;;;;;1.13;0.30;;;28.50;84.00;;;;;;3575235;40;20840;-67
2021/07/10 10:22:02;;;;;;;0.85;0.20;;;28.50;84.10;;;;;;3561205;40;20647;-67
2021/07/10 10:24:31;;;;;;;1.20;0.10;;;28.70;85.50;;;;;;3569684;40;20496;-66
2021/07/10 10:26:58;;;;;;;0.50;0.20;;;28.90;85.40;;;;;;3575321;40;20768;-66
2021/07/10 10:29:25;;;;;;;3.40;0.45;;;28.80;82.80;;;;;;3574166;40;20401;-66
2021/07/10 10:31:52;;;;;;;0.60;0.10;;;28.60;83.20;;;;;;3574683;40;20455;-66
2021/07/10 10:34:19;;;;;;;1.25;0.10;;;28.70;83.00;;;;;;3574164;40;20486;-67
2021/07/10 10:36:46;;;;;;;1.45;0.20;;;29.00;82.30;;;;;;3575449;40;20395;-66
2021/07/10 10:39:14;;;;;;;1.30;0.20;;;29.10;80.90;;;;;;3565216;40;20419;-66
2021/07/10 10:41:45;;;;;;;0.30;0.10;;;29.30;79.00;;;;;;3574858;40;20777;-67
2021/07/10 10:44:11;;;;;;;0.15;0.10;;;29.10;78.60;;;;;;3574466;40;20381;-67
2021/07/10 10:46:46;;;;;;;0.52;0.10;;;29.00;80.50;;;;;;3575032;40;20399;-66
2021/07/10 10:49:33;;;;;;;0.95;0.10;;;29.30;82.80;;;;;;3564560;40;20412;-67
2021/07/10 10:52:34;;;;;;;0.70;0.10;;;29.20;79.50;;;;;;3574877;40;20463;-66
2021/07/10 10:55:10;;;;;;;1.10;0.20;;;29.40;82.60;;;;;;3575203;40;20368;-67
2021/07/10 10:57:40;;;;;;;0.55;0.25;;;29.50;77.70;;;;;;3574692;40;20799;-67
2021/07/10 11:00:11;;;;;;;1.10;0.20;;;29.40;78.50;;;;;;3575382;40;20368;-68
2021/07/10 11:02:55;;;;;;;1.87;0.30;;;29.30;77.90;;;;;;3562255;40;20772;-67
2021/07/10 11:05:45;;;;;;;0.60;0.10;;;29.40;76.50;;;;;;3564318;40;20394;-66
2021/07/10 11:08:34;;;;;;;0.77;0.10;;;29.20;75.30;;;;;;3565019;40;20659;-67
2021/07/10 11:11:29;;;;;;;0.22;0.10;;;29.10;78.50;;;;;;3565117;40;20381;-66
2021/07/10 11:14:21;;;;;;;0.80;0.10;;;29.10;77.90;;;;;;3564086;40;21384;-66
2021/07/10 11:17:10;;;;;;;0.35;0.20;;;29.20;77.50;;;;;;3566257;40;20382;-67
2021/07/10 11:19:53;;;;;;;4.53;0.20;;;29.50;78.40;;;;;;3565938;40;20397;-67
2021/07/10 11:22:56;;;;;;;1.00;0.10;;;29.40;76.30;;;;;;3565729;40;20380;-67
2021/07/10 11:25:58;;;;;;;2.33;0.20;;;29.50;76.70;;;;;;3566008;40;20382;-67
2021/07/10 11:28:26;;;;;;;1.83;0.20;;;29.20;75.00;;;;;;3566217;40;20388;-67
2021/07/10 11:30:55;;;;;;;0.68;0.20;;;29.60;78.40;;;;;;3566050;40;20416;-67
2021/07/10 11:33:59;;;;;;;0.10;0.10;;;29.80;76.70;;;;;;3566079;40;20405;-67
2021/07/10 11:36:58;;;;;;;0.40;0.10;;;29.70;75.70;;;;;;3569107;40;20764;-66
2021/07/10 11:39:58;;;;;;;0.70;0.20;;;29.70;76.10;;;;;;3564982;40;20421;-66
2021/07/10 11:42:45;;;;;;;0.10;0.10;;;30.10;77.50;;;;;;3565727;40;20397;-68
2021/07/10 11:45:33;;;;;;;1.00;0.40;;;30.10;73.90;;;;;;3563877;40;20390;-67
2021/07/10 11:48:25;;;;;;;1.20;0.10;;;29.90;76.60;;;;;;3565014;40;20405;-68
2021/07/10 11:51:00;;;;;;;0.70;0.10;;;29.90;75.40;;;;;;3565670;40;20377;-67
2021/07/10 11:53:27;;;;;;;1.90;0.35;;;;;;;;;;3563822;40;20402;-67
2021/07/10 11:55:52;;;;;;;0.20;0.10;;;30.00;75.00;;;;;;3564602;40;20455;-66
2021/07/10 11:58:20;;;;;;;0.70;0.20;;;30.20;86.10;;;;;;3565691;40;20432;-67
2021/07/10 12:00:47;;;;;;;0.40;0.10;;;30.10;82.50;;;;;;3565081;40;20392;-66
2021/07/10 12:03:17;;;;;;;0.27;0.17;;;29.70;90.70;;;;;;3564571;40;20417;-66
2021/07/10 12:05:45;;;;;;;0.30;0.20;;;30.00;92.90;;;;;;3565848;40;20782;-67
2021/07/10 12:08:11;;;;;;;1.02;0.20;;;30.40;76.30;;;;;;3565705;40;20406;-67
2021/07/10 12:10:38;;;;;;;0.63;0.20;;;30.70;77.00;;;;;;3565666;40;20402;-68
2021/07/10 12:13:07;;;;;;;1.13;0.17;;;;;;;;;;3565602;40;20480;-68
2021/07/10 12:15:37;;;;;;;0.73;0.20;;;30.60;71.60;;;;;;3565682;40;20417;-68
2021/07/10 12:18:05;;;;;;;1.60;0.20;;;30.60;74.00;;;;;;3565392;40;20416;-67
2021/07/10 12:20:33;;;;;;;0.30;0.20;;;30.60;75.90;;;;;;3565524;40;20405;-67
2021/07/10 12:23:03;;;;;;;0.80;0.20;;;30.70;76.30;;;;;;3564659;40;20495;-67
2021/07/10 12:25:32;;;;;;;1.95;0.30;;;30.90;75.70;;;;;;3565503;40;20798;-67
2021/07/10 12:28:03;;;;;;;0.40;0.20;;;30.60;76.20;;;;;;3564314;40;20429;-67
2021/07/10 12:30:37;;;;;;;0.63;0.20;;;30.20;75.30;;;;;;3565177;40;20385;-67
2021/07/10 12:33:04;;;;;;;1.17;0.20;;;30.30;74.80;;;;;;3565840;40;20449;-67
2021/07/10 12:35:30;;;;;;;0.43;0.20;;;30.30;77.50;;;;;;3565576;40;20413;-68
2021/07/10 12:38:10;;;;;;;2.22;0.20;;;30.30;76.00;;;;;;3560737;40;20503;-67
2021/07/10 12:40:36;;;;;;;0.73;0.20;;;30.50;75.70;;;;;;3565026;40;20495;-67
2021/07/10 12:43:02;;;;;;;0.73;0.20;;;30.30;74.30;;;;;;3565430;40;20441;-66
2021/07/10 12:45:30;;;;;;;0.40;0.20;;;30.10;76.10;;;;;;3564526;40;20413;-68
2021/07/10 12:47:59;;;;;;;1.10;0.27;;;30.40;77.20;;;;;;3565738;40;20763;-66
2021/07/10 12:50:25;;;;;;;0.30;0.10;;;31.00;75.10;;;;;;3565956;40;20769;-68
2021/07/10 12:53:05;;;;;;;1.80;0.20;;;;;;;;;;3564247;40;20429;-67
2021/07/10 12:55:48;;;;;;;0.70;0.30;;;31.70;74.10;;;;;;3565549;40;20373;-68